sensor_id;sensor_type;location;lat;lon;timestamp;temperature;humidity
7516;DHT22;3799;47.184;8.538;2023-04-03T00:01:17;8.50;99.90
7516;DHT22;3799;47.184;8.538;2023-04-03T00:03:46;8.50;99.90
7516;DHT22;3799;47.184;8.538;2023-04-03T00:06:13;8.50;99.90
7516;DHT22;3799;47.184;8.538;2023-04-03T00:08:41;8.30;99.90
7516;DHT22;3799;47.184;8.538;2023-04-03T00:11:09;8.50;99.90
7516;DHT22;3799;47.184;8.538;2023-04-03T00:13:45;8.40;99.90
7516;DHT22;3799;47.184;8.538;2023-04-03T00:16:13;8.50;99.90
7516;DHT22;3799;47.184;8.538;2023-04-03T00:18:40;8.40;99.90
7516;DHT22;3799;47.184;8.538;2023-04-03T00:21:10;8.60;99.90
7516;DHT22;3799;47.184;8.538;2023-04-03T00:23:42;8.40;99.90
7516;DHT22;3799;47.184;8.538;2023-04-03T00:26:09;8.40;99.90
7516;DHT22;3799;47.184;8.538;2023-04-03T00:28:37;8.50;99.90
7516;DHT22;3799;47.184;8.538;2023-04-03T00:31:04;8.60;99.90
7516;DHT22;3799;47.184;8.538;2023-04-03T00:33:31;8.80;99.90
7516;DHT22;3799;47.184;8.538;2023-04-03T00:36:12;8.70;99.90
7516;DHT22;3799;47.184;8.538;2023-04-03T00:38:40;8.50;99.90
7516;DHT22;3799;47.184;8.538;2023-04-03T00:41:07;8.50;99.90
7516;DHT22;3799;47.184;8.538;2023-04-03T00:43:35;8.80;99.90
7516;DHT22;3799;47.184;8.538;2023-04-03T00:46:03;8.40;99.90
7516;DHT22;3799;47.184;8.538;2023-04-03T00:48:45;8.40;99.90
7516;DHT22;3799;47.184;8.538;2023-04-03T00:51:24;8.50;99.90
7516;DHT22;3799;47.184;8.538;2023-04-03T00:54:10;8.40;99.90
7516;DHT22;3799;47.184;8.538;2023-04-03T00:56:37;8.70;99.90
7516;DHT22;3799;47.184;8.538;2023-04-03T00:59:10;8.30;99.90
7516;DHT22;3799;47.184;8.538;2023-04-03T01:01:38;8.40;99.90
7516;DHT22;3799;47.184;8.538;2023-04-03T01:04:34;8.30;99.90
7516;DHT22;3799;47.184;8.538;2023-04-03T01:07:16;8.30;99.90
7516;DHT22;3799;47.184;8.538;2023-04-03T01:09:45;8.30;99.90
7516;DHT22;3799;47.184;8.538;2023-04-03T01:12:29;8.40;99.90
7516;DHT22;3799;47.184;8.538;2023-04-03T01:15:02;8.20;99.90
7516;DHT22;3799;47.184;8.538;2023-04-03T01:17:34;8.00;99.90
7516;DHT22;3799;47.184;8.538;2023-04-03T01:22:48;7.90;99.90
7516;DHT22;3799;47.184;8.538;2023-04-03T01:25:21;7.80;99.90
7516;DHT22;3799;47.184;8.538;2023-04-03T01:27:49;7.80;99.90
7516;DHT22;3799;47.184;8.538;2023-04-03T01:30:18;7.90;99.90
7516;DHT22;3799;47.184;8.538;2023-04-03T01:32:45;7.70;99.90
7516;DHT22;3799;47.184;8.538;2023-04-03T01:35:16;7.70;99.90
7516;DHT22;3799;47.184;8.538;2023-04-03T01:37:43;7.60;99.90
7516;DHT22;3799;47.184;8.538;2023-04-03T01:40:11;7.60;99.90
7516;DHT22;3799;47.184;8.538;2023-04-03T01:42:39;7.70;99.90
7516;DHT22;3799;47.184;8.538;2023-04-03T01:45:07;7.60;99.90
7516;DHT22;3799;47.184;8.538;2023-04-03T01:47:35;7.70;99.90
7516;DHT22;3799;47.184;8.538;2023-04-03T01:50:02;7.60;99.90
7516;DHT22;3799;47.184;8.538;2023-04-03T01:52:30;7.60;99.90
7516;DHT22;3799;47.184;8.538;2023-04-03T01:54:58;7.50;99.90
7516;DHT22;3799;47.184;8.538;2023-04-03T01:57:25;7.60;99.90
7516;DHT22;3799;47.184;8.538;2023-04-03T01:59:53;7.60;99.90
7516;DHT22;3799;47.184;8.538;2023-04-03T02:02:23;7.70;99.90
7516;DHT22;3799;47.184;8.538;2023-04-03T02:04:51;7.60;99.90
7516;DHT22;3799;47.184;8.538;2023-04-03T02:07:19;7.60;99.90
7516;DHT22;3799;47.184;8.538;2023-04-03T02:09:48;7.50;99.90
7516;DHT22;3799;47.184;8.538;2023-04-03T02:12:19;7.30;99.90
7516;DHT22;3799;47.184;8.538;2023-04-03T02:14:46;7.40;99.90
7516;DHT22;3799;47.184;8.538;2023-04-03T02:17:14;7.40;99.90
7516;DHT22;3799;47.184;8.538;2023-04-03T02:19:42;7.40;99.90
7516;DHT22;3799;47.184;8.538;2023-04-03T02:22:09;7.20;99.90
7516;DHT22;3799;47.184;8.538;2023-04-03T02:24:37;7.30;99.90
7516;DHT22;3799;47.184;8.538;2023-04-03T02:27:06;7.40;99.90
7516;DHT22;3799;47.184;8.538;2023-04-03T02:29:35;7.20;99.90
7516;DHT22;3799;47.184;8.538;2023-04-03T02:32:03;7.10;99.90
7516;DHT22;3799;47.184;8.538;2023-04-03T02:34:31;7.30;99.90
7516;DHT22;3799;47.184;8.538;2023-04-03T02:36:58;7.40;99.90
7516;DHT22;3799;47.184;8.538;2023-04-03T02:39:25;6.80;99.90
7516;DHT22;3799;47.184;8.538;2023-04-03T02:41:53;6.90;99.90
7516;DHT22;3799;47.184;8.538;2023-04-03T02:44:20;7.00;99.90
7516;DHT22;3799;47.184;8.538;2023-04-03T02:46:47;7.30;99.90
7516;DHT22;3799;47.184;8.538;2023-04-03T02:49:15;7.20;99.90
7516;DHT22;3799;47.184;8.538;2023-04-03T02:51:42;7.30;99.90
7516;DHT22;3799;47.184;8.538;2023-04-03T02:54:09;7.40;99.90
7516;DHT22;3799;47.184;8.538;2023-04-03T02:56:36;7.40;99.90
7516;DHT22;3799;47.184;8.538;2023-04-03T02:59:04;7.10;99.90
7516;DHT22;3799;47.184;8.538;2023-04-03T03:01:31;7.20;99.90
7516;DHT22;3799;47.184;8.538;2023-04-03T03:04:00;7.10;99.90
7516;DHT22;3799;47.184;8.538;2023-04-03T03:06:30;7.10;99.90
7516;DHT22;3799;47.184;8.538;2023-04-03T03:08:58;7.20;99.90
7516;DHT22;3799;47.184;8.538;2023-04-03T03:11:25;6.90;99.90
7516;DHT22;3799;47.184;8.538;2023-04-03T03:13:53;6.90;99.90
7516;DHT22;3799;47.184;8.538;2023-04-03T03:16:20;7.20;99.90
7516;DHT22;3799;47.184;8.538;2023-04-03T03:18:48;6.90;99.90
7516;DHT22;3799;47.184;8.538;2023-04-03T03:21:15;6.80;99.90
7516;DHT22;3799;47.184;8.538;2023-04-03T03:23:43;7.10;99.90
7516;DHT22;3799;47.184;8.538;2023-04-03T03:26:10;6.90;99.90
7516;DHT22;3799;47.184;8.538;2023-04-03T03:28:41;6.90;99.90
7516;DHT22;3799;47.184;8.538;2023-04-03T03:31:10;6.80;99.90
7516;DHT22;3799;47.184;8.538;2023-04-03T03:33:39;6.70;99.90
7516;DHT22;3799;47.184;8.538;2023-04-03T03:36:07;6.80;99.90
7516;DHT22;3799;47.184;8.538;2023-04-03T03:38:44;6.50;99.90
7516;DHT22;3799;47.184;8.538;2023-04-03T03:41:11;6.90;99.90
7516;DHT22;3799;47.184;8.538;2023-04-03T03:43:38;6.50;99.90
7516;DHT22;3799;47.184;8.538;2023-04-03T03:46:06;6.80;99.90
7516;DHT22;3799;47.184;8.538;2023-04-03T03:48:33;6.60;99.90
7516;DHT22;3799;47.184;8.538;2023-04-03T03:51:00;6.60;99.90
7516;DHT22;3799;47.184;8.538;2023-04-03T03:53:28;6.50;99.90
7516;DHT22;3799;47.184;8.538;2023-04-03T03:55:55;6.60;99.90
7516;DHT22;3799;47.184;8.538;2023-04-03T03:58:23;6.50;99.90
7516;DHT22;3799;47.184;8.538;2023-04-03T04:00:51;6.50;99.90
7516;DHT22;3799;47.184;8.538;2023-04-03T04:03:19;6.80;99.90
7516;DHT22;3799;47.184;8.538;2023-04-03T04:05:46;6.80;99.90
7516;DHT22;3799;47.184;8.538;2023-04-03T04:08:16;6.70;99.90
7516;DHT22;3799;47.184;8.538;2023-04-03T04:10:46;6.70;99.90
7516;DHT22;3799;47.184;8.538;2023-04-03T04:13:13;6.80;99.90
7516;DHT22;3799;47.184;8.538;2023-04-03T04:15:42;6.50;99.90
7516;DHT22;3799;47.184;8.538;2023-04-03T04:18:12;6.50;99.90
7516;DHT22;3799;47.184;8.538;2023-04-03T04:20:40;6.50;99.90
7516;DHT22;3799;47.184;8.538;2023-04-03T04:23:07;6.60;99.90
7516;DHT22;3799;47.184;8.538;2023-04-03T04:25:35;6.50;99.90
7516;DHT22;3799;47.184;8.538;2023-04-03T04:28:02;6.50;99.90
7516;DHT22;3799;47.184;8.538;2023-04-03T04:30:30;6.50;99.90
7516;DHT22;3799;47.184;8.538;2023-04-03T04:32:57;6.70;99.90
7516;DHT22;3799;47.184;8.538;2023-04-03T04:35:25;6.60;99.90
7516;DHT22;3799;47.184;8.538;2023-04-03T04:37:52;6.40;99.90
7516;DHT22;3799;47.184;8.538;2023-04-03T04:40:20;6.50;99.90
7516;DHT22;3799;47.184;8.538;2023-04-03T04:42:47;6.30;99.90
7516;DHT22;3799;47.184;8.538;2023-04-03T04:45:15;6.30;99.90
7516;DHT22;3799;47.184;8.538;2023-04-03T04:47:43;6.30;99.90
7516;DHT22;3799;47.184;8.538;2023-04-03T04:50:11;6.10;99.90
7516;DHT22;3799;47.184;8.538;2023-04-03T04:52:39;6.40;99.90
7516;DHT22;3799;47.184;8.538;2023-04-03T04:55:06;6.40;99.90
7516;DHT22;3799;47.184;8.538;2023-04-03T04:57:34;6.10;99.90
7516;DHT22;3799;47.184;8.538;2023-04-03T05:00:03;6.10;99.90
7516;DHT22;3799;47.184;8.538;2023-04-03T05:02:33;5.90;99.90
7516;DHT22;3799;47.184;8.538;2023-04-03T05:05:01;6.00;99.90
7516;DHT22;3799;47.184;8.538;2023-04-03T05:07:31;6.00;99.90
7516;DHT22;3799;47.184;8.538;2023-04-03T05:09:58;6.10;99.90
7516;DHT22;3799;47.184;8.538;2023-04-03T05:12:25;6.00;99.90
7516;DHT22;3799;47.184;8.538;2023-04-03T05:14:53;6.20;99.90
7516;DHT22;3799;47.184;8.538;2023-04-03T05:17:20;6.20;99.90
7516;DHT22;3799;47.184;8.538;2023-04-03T05:19:48;6.10;99.90
7516;DHT22;3799;47.184;8.538;2023-04-03T05:22:15;5.90;99.90
7516;DHT22;3799;47.184;8.538;2023-04-03T05:24:43;6.00;99.90
7516;DHT22;3799;47.184;8.538;2023-04-03T05:27:10;6.10;99.90
7516;DHT22;3799;47.184;8.538;2023-04-03T05:29:38;5.80;99.90
7516;DHT22;3799;47.184;8.538;2023-04-03T05:32:06;6.10;99.90
7516;DHT22;3799;47.184;8.538;2023-04-03T05:34:34;5.90;99.90
7516;DHT22;3799;47.184;8.538;2023-04-03T05:37:01;6.00;99.90
7516;DHT22;3799;47.184;8.538;2023-04-03T05:39:30;5.90;99.90
7516;DHT22;3799;47.184;8.538;2023-04-03T05:41:58;5.90;99.90
7516;DHT22;3799;47.184;8.538;2023-04-03T05:44:26;6.00;99.90
7516;DHT22;3799;47.184;8.538;2023-04-03T05:46:53;5.80;99.90
7516;DHT22;3799;47.184;8.538;2023-04-03T05:49:20;5.90;99.90
7516;DHT22;3799;47.184;8.538;2023-04-03T05:51:48;5.90;99.90
7516;DHT22;3799;47.184;8.538;2023-04-03T05:54:21;5.80;99.90
7516;DHT22;3799;47.184;8.538;2023-04-03T05:56:51;6.00;99.90
7516;DHT22;3799;47.184;8.538;2023-04-03T05:59:19;5.90;99.90
7516;DHT22;3799;47.184;8.538;2023-04-03T06:01:48;5.90;99.90
7516;DHT22;3799;47.184;8.538;2023-04-03T06:04:16;5.90;99.90
7516;DHT22;3799;47.184;8.538;2023-04-03T06:09:12;5.90;99.90
7516;DHT22;3799;47.184;8.538;2023-04-03T06:11:40;5.90;99.90
7516;DHT22;3799;47.184;8.538;2023-04-03T06:14:09;5.80;99.90
7516;DHT22;3799;47.184;8.538;2023-04-03T06:16:36;6.10;99.90
7516;DHT22;3799;47.184;8.538;2023-04-03T06:19:10;5.90;99.90
7516;DHT22;3799;47.184;8.538;2023-04-03T06:21:38;5.80;99.90
7516;DHT22;3799;47.184;8.538;2023-04-03T06:24:06;5.90;99.90
7516;DHT22;3799;47.184;8.538;2023-04-03T06:26:34;5.80;99.90
7516;DHT22;3799;47.184;8.538;2023-04-03T06:29:01;6.00;99.90
7516;DHT22;3799;47.184;8.538;2023-04-03T06:31:29;6.20;99.90
7516;DHT22;3799;47.184;8.538;2023-04-03T06:33:57;5.80;99.90
7516;DHT22;3799;47.184;8.538;2023-04-03T06:36:25;5.90;99.90
7516;DHT22;3799;47.184;8.538;2023-04-03T06:38:52;6.10;99.90
7516;DHT22;3799;47.184;8.538;2023-04-03T06:41:20;6.00;99.90
7516;DHT22;3799;47.184;8.538;2023-04-03T06:43:48;6.20;99.90
7516;DHT22;3799;47.184;8.538;2023-04-03T06:46:18;6.00;99.90
7516;DHT22;3799;47.184;8.538;2023-04-03T06:48:46;6.20;99.90
7516;DHT22;3799;47.184;8.538;2023-04-03T06:51:25;6.20;99.90
7516;DHT22;3799;47.184;8.538;2023-04-03T06:53:55;6.20;99.90
7516;DHT22;3799;47.184;8.538;2023-04-03T06:56:23;6.40;99.90
7516;DHT22;3799;47.184;8.538;2023-04-03T06:58:51;6.10;99.90
7516;DHT22;3799;47.184;8.538;2023-04-03T07:01:21;6.40;99.90
7516;DHT22;3799;47.184;8.538;2023-04-03T07:03:51;6.50;99.90
7516;DHT22;3799;47.184;8.538;2023-04-03T07:06:20;6.40;99.90
7516;DHT22;3799;47.184;8.538;2023-04-03T07:08:49;6.40;99.90
7516;DHT22;3799;47.184;8.538;2023-04-03T07:11:17;6.60;99.90
7516;DHT22;3799;47.184;8.538;2023-04-03T07:13:44;6.60;99.90
7516;DHT22;3799;47.184;8.538;2023-04-03T07:16:12;6.50;99.90
7516;DHT22;3799;47.184;8.538;2023-04-03T07:18:42;6.60;99.90
7516;DHT22;3799;47.184;8.538;2023-04-03T07:21:10;6.40;99.90
7516;DHT22;3799;47.184;8.538;2023-04-03T07:23:39;6.90;99.90
7516;DHT22;3799;47.184;8.538;2023-04-03T07:26:09;6.50;99.90
7516;DHT22;3799;47.184;8.538;2023-04-03T07:28:37;6.50;99.90
7516;DHT22;3799;47.184;8.538;2023-04-03T07:31:10;6.40;99.90
7516;DHT22;3799;47.184;8.538;2023-04-03T07:33:39;6.80;99.90
7516;DHT22;3799;47.184;8.538;2023-04-03T07:36:08;6.80;99.90
7516;DHT22;3799;47.184;8.538;2023-04-03T07:38:36;6.70;99.90
7516;DHT22;3799;47.184;8.538;2023-04-03T07:41:04;6.50;99.90
7516;DHT22;3799;47.184;8.538;2023-04-03T07:43:32;6.80;99.90
7516;DHT22;3799;47.184;8.538;2023-04-03T07:46:04;6.90;99.90
7516;DHT22;3799;47.184;8.538;2023-04-03T07:48:32;6.50;99.90
7516;DHT22;3799;47.184;8.538;2023-04-03T07:51:03;6.50;99.90
7516;DHT22;3799;47.184;8.538;2023-04-03T07:53:32;6.80;99.90
7516;DHT22;3799;47.184;8.538;2023-04-03T07:55:59;7.00;99.90
7516;DHT22;3799;47.184;8.538;2023-04-03T07:58:27;6.80;99.90
7516;DHT22;3799;47.184;8.538;2023-04-03T08:00:54;6.90;99.90
7516;DHT22;3799;47.184;8.538;2023-04-03T08:03:31;6.80;99.90
7516;DHT22;3799;47.184;8.538;2023-04-03T08:06:04;7.30;99.90
7516;DHT22;3799;47.184;8.538;2023-04-03T08:08:37;7.10;99.90
7516;DHT22;3799;47.184;8.538;2023-04-03T08:11:05;7.10;99.90
7516;DHT22;3799;47.184;8.538;2023-04-03T08:13:33;7.20;99.90
7516;DHT22;3799;47.184;8.538;2023-04-03T08:16:17;7.40;99.90
7516;DHT22;3799;47.184;8.538;2023-04-03T08:18:48;7.40;99.90
7516;DHT22;3799;47.184;8.538;2023-04-03T08:21:15;7.20;99.90
7516;DHT22;3799;47.184;8.538;2023-04-03T08:23:56;7.60;99.90
7516;DHT22;3799;47.184;8.538;2023-04-03T08:26:23;7.80;99.90
7516;DHT22;3799;47.184;8.538;2023-04-03T08:28:50;7.60;99.90
7516;DHT22;3799;47.184;8.538;2023-04-03T08:31:19;7.70;99.90
7516;DHT22;3799;47.184;8.538;2023-04-03T08:33:47;7.80;99.90
7516;DHT22;3799;47.184;8.538;2023-04-03T08:36:22;7.70;99.90
7516;DHT22;3799;47.184;8.538;2023-04-03T08:38:50;7.60;99.90
7516;DHT22;3799;47.184;8.538;2023-04-03T08:41:40;7.80;99.90
7516;DHT22;3799;47.184;8.538;2023-04-03T08:44:38;7.80;99.90
7516;DHT22;3799;47.184;8.538;2023-04-03T08:47:21;7.90;99.90
7516;DHT22;3799;47.184;8.538;2023-04-03T08:49:57;8.10;99.90
7516;DHT22;3799;47.184;8.538;2023-04-03T08:55:11;8.00;99.90
7516;DHT22;3799;47.184;8.538;2023-04-03T08:57:42;8.00;99.90
7516;DHT22;3799;47.184;8.538;2023-04-03T09:00:20;8.00;99.90
7516;DHT22;3799;47.184;8.538;2023-04-03T09:02:55;8.40;99.60
7516;DHT22;3799;47.184;8.538;2023-04-03T09:08:14;7.90;97.80
7516;DHT22;3799;47.184;8.538;2023-04-03T09:10:47;8.30;98.10
7516;DHT22;3799;47.184;8.538;2023-04-03T09:16:56;8.10;96.90
7516;DHT22;3799;47.184;8.538;2023-04-03T09:22:20;8.30;97.00
7516;DHT22;3799;47.184;8.538;2023-04-03T09:24:59;8.50;96.90
7516;DHT22;3799;47.184;8.538;2023-04-03T09:27:30;8.30;94.90
7516;DHT22;3799;47.184;8.538;2023-04-03T09:29:58;8.30;96.10
7516;DHT22;3799;47.184;8.538;2023-04-03T09:32:34;8.40;96.70
7516;DHT22;3799;47.184;8.538;2023-04-03T09:35:26;8.10;96.60
7516;DHT22;3799;47.184;8.538;2023-04-03T09:40:42;8.40;97.80
7516;DHT22;3799;47.184;8.538;2023-04-03T09:45:49;8.10;97.00
7516;DHT22;3799;47.184;8.538;2023-04-03T09:50:55;8.40;97.60
7516;DHT22;3799;47.184;8.538;2023-04-03T09:53:38;8.40;97.70
7516;DHT22;3799;47.184;8.538;2023-04-03T09:56:20;8.30;97.20
7516;DHT22;3799;47.184;8.538;2023-04-03T09:59:06;8.40;96.10
7516;DHT22;3799;47.184;8.538;2023-04-03T10:04:50;8.60;95.10
7516;DHT22;3799;47.184;8.538;2023-04-03T10:07:36;8.40;94.20
7516;DHT22;3799;47.184;8.538;2023-04-03T10:10:21;8.50;94.60
7516;DHT22;3799;47.184;8.538;2023-04-03T10:13:10;8.50;93.90
7516;DHT22;3799;47.184;8.538;2023-04-03T10:15:51;8.50;93.10
7516;DHT22;3799;47.184;8.538;2023-04-03T10:18:32;8.50;92.50
7516;DHT22;3799;47.184;8.538;2023-04-03T10:26:34;9.00;92.90
7516;DHT22;3799;47.184;8.538;2023-04-03T10:36:55;9.10;90.50
7516;DHT22;3799;47.184;8.538;2023-04-03T10:39:32;8.90;90.00
7516;DHT22;3799;47.184;8.538;2023-04-03T10:47:27;9.60;88.50
7516;DHT22;3799;47.184;8.538;2023-04-03T10:50:12;9.80;86.40
7516;DHT22;3799;47.184;8.538;2023-04-03T10:52:55;9.70;85.90
7516;DHT22;3799;47.184;8.538;2023-04-03T10:55:42;10.00;83.70
7516;DHT22;3799;47.184;8.538;2023-04-03T10:58:24;9.90;82.80
7516;DHT22;3799;47.184;8.538;2023-04-03T11:00:56;10.20;79.00
7516;DHT22;3799;47.184;8.538;2023-04-03T11:03:43;10.00;77.70
7516;DHT22;3799;47.184;8.538;2023-04-03T11:06:15;10.00;79.30
7516;DHT22;3799;47.184;8.538;2023-04-03T11:09:02;10.00;78.50
7516;DHT22;3799;47.184;8.538;2023-04-03T11:11:36;10.00;77.60
7516;DHT22;3799;47.184;8.538;2023-04-03T11:14:30;10.00;77.80
7516;DHT22;3799;47.184;8.538;2023-04-03T11:22:35;10.00;76.40
7516;DHT22;3799;47.184;8.538;2023-04-03T11:25:21;10.10;74.50
7516;DHT22;3799;47.184;8.538;2023-04-03T11:28:05;9.90;73.80
7516;DHT22;3799;47.184;8.538;2023-04-03T11:30:56;9.80;74.30
7516;DHT22;3799;47.184;8.538;2023-04-03T11:36:49;9.80;77.00
7516;DHT22;3799;47.184;8.538;2023-04-03T11:39:34;9.70;77.80
7516;DHT22;3799;47.184;8.538;2023-04-03T11:42:22;9.70;76.40
7516;DHT22;3799;47.184;8.538;2023-04-03T11:47:51;9.70;73.40
7516;DHT22;3799;47.184;8.538;2023-04-03T12:16:41;11.10;63.00
7516;DHT22;3799;47.184;8.538;2023-04-03T12:19:37;11.20;64.30
7516;DHT22;3799;47.184;8.538;2023-04-03T12:22:15;11.30;63.10
7516;DHT22;3799;47.184;8.538;2023-04-03T12:24:47;11.00;64.10
7516;DHT22;3799;47.184;8.538;2023-04-03T12:27:48;10.80;63.50
7516;DHT22;3799;47.184;8.538;2023-04-03T12:30:23;10.70;65.00
7516;DHT22;3799;47.184;8.538;2023-04-03T12:36:07;10.60;64.40
7516;DHT22;3799;47.184;8.538;2023-04-03T12:39:05;11.10;63.30
7516;DHT22;3799;47.184;8.538;2023-04-03T12:44:27;10.70;61.30
7516;DHT22;3799;47.184;8.538;2023-04-03T12:47:00;10.70;63.20
7516;DHT22;3799;47.184;8.538;2023-04-03T12:51:56;10.50;61.90
7516;DHT22;3799;47.184;8.538;2023-04-03T12:54:37;10.80;61.40
7516;DHT22;3799;47.184;8.538;2023-04-03T12:57:11;10.70;61.00
7516;DHT22;3799;47.184;8.538;2023-04-03T12:59:39;10.60;60.80
7516;DHT22;3799;47.184;8.538;2023-04-03T13:02:29;10.80;63.60
7516;DHT22;3799;47.184;8.538;2023-04-03T13:05:05;10.90;63.60
7516;DHT22;3799;47.184;8.538;2023-04-03T13:07:35;11.10;61.80
7516;DHT22;3799;47.184;8.538;2023-04-03T13:13:13;11.40;61.20
7516;DHT22;3799;47.184;8.538;2023-04-03T13:15:47;11.50;60.20
7516;DHT22;3799;47.184;8.538;2023-04-03T13:21:10;11.30;58.60
7516;DHT22;3799;47.184;8.538;2023-04-03T13:23:45;11.40;59.30
7516;DHT22;3799;47.184;8.538;2023-04-03T13:26:17;11.60;59.40
7516;DHT22;3799;47.184;8.538;2023-04-03T13:28:45;11.90;58.80
7516;DHT22;3799;47.184;8.538;2023-04-03T13:31:18;11.80;59.00
7516;DHT22;3799;47.184;8.538;2023-04-03T13:34:09;11.70;59.00
7516;DHT22;3799;47.184;8.538;2023-04-03T13:36:59;11.80;59.40
7516;DHT22;3799;47.184;8.538;2023-04-03T13:39:30;11.80;60.00
7516;DHT22;3799;47.184;8.538;2023-04-03T13:42:01;11.80;59.40
7516;DHT22;3799;47.184;8.538;2023-04-03T13:44:36;11.50;58.70
7516;DHT22;3799;47.184;8.538;2023-04-03T13:47:22;10.90;59.10
7516;DHT22;3799;47.184;8.538;2023-04-03T13:50:15;10.90;59.90
7516;DHT22;3799;47.184;8.538;2023-04-03T13:52:49;10.80;59.80
7516;DHT22;3799;47.184;8.538;2023-04-03T14:00:46;10.60;60.10
7516;DHT22;3799;47.184;8.538;2023-04-03T14:03:20;10.40;60.90
7516;DHT22;3799;47.184;8.538;2023-04-03T14:05:48;10.30;59.70
7516;DHT22;3799;47.184;8.538;2023-04-03T14:08:17;10.30;59.70
7516;DHT22;3799;47.184;8.538;2023-04-03T14:10:50;10.30;61.00
7516;DHT22;3799;47.184;8.538;2023-04-03T14:13:20;10.40;61.30
7516;DHT22;3799;47.184;8.538;2023-04-03T14:15:49;10.60;61.10
7516;DHT22;3799;47.184;8.538;2023-04-03T14:18:19;10.70;60.60
7516;DHT22;3799;47.184;8.538;2023-04-03T14:20:48;10.80;61.40
7516;DHT22;3799;47.184;8.538;2023-04-03T14:23:15;10.70;60.00
7516;DHT22;3799;47.184;8.538;2023-04-03T14:25:43;10.70;60.50
7516;DHT22;3799;47.184;8.538;2023-04-03T14:28:21;11.00;60.30
7516;DHT22;3799;47.184;8.538;2023-04-03T14:30:50;10.70;59.30
7516;DHT22;3799;47.184;8.538;2023-04-03T14:33:21;10.90;59.80
7516;DHT22;3799;47.184;8.538;2023-04-03T14:35:49;10.60;59.70
7516;DHT22;3799;47.184;8.538;2023-04-03T14:38:30;10.50;60.80
7516;DHT22;3799;47.184;8.538;2023-04-03T14:40:58;10.60;61.70
7516;DHT22;3799;47.184;8.538;2023-04-03T14:43:44;10.60;61.80
7516;DHT22;3799;47.184;8.538;2023-04-03T14:46:15;10.20;60.80
7516;DHT22;3799;47.184;8.538;2023-04-03T14:48:45;10.40;62.30
7516;DHT22;3799;47.184;8.538;2023-04-03T14:51:14;10.90;64.00
7516;DHT22;3799;47.184;8.538;2023-04-03T14:53:43;10.60;59.40
7516;DHT22;3799;47.184;8.538;2023-04-03T14:56:31;10.90;60.00
7516;DHT22;3799;47.184;8.538;2023-04-03T14:59:00;10.90;59.40
7516;DHT22;3799;47.184;8.538;2023-04-03T15:01:30;10.60;59.60
7516;DHT22;3799;47.184;8.538;2023-04-03T15:03:58;10.90;62.10
7516;DHT22;3799;47.184;8.538;2023-04-03T15:06:26;11.10;61.60
7516;DHT22;3799;47.184;8.538;2023-04-03T15:08:53;10.90;59.70
7516;DHT22;3799;47.184;8.538;2023-04-03T15:11:23;11.20;60.40
7516;DHT22;3799;47.184;8.538;2023-04-03T15:13:51;11.00;59.80
7516;DHT22;3799;47.184;8.538;2023-04-03T15:16:19;11.10;59.70
7516;DHT22;3799;47.184;8.538;2023-04-03T15:18:47;11.30;59.30
7516;DHT22;3799;47.184;8.538;2023-04-03T15:21:15;11.00;58.70
7516;DHT22;3799;47.184;8.538;2023-04-03T15:23:42;10.90;58.60
7516;DHT22;3799;47.184;8.538;2023-04-03T15:26:13;11.20;58.90
7516;DHT22;3799;47.184;8.538;2023-04-03T15:28:42;11.10;59.10
7516;DHT22;3799;47.184;8.538;2023-04-03T15:31:10;10.70;58.70
7516;DHT22;3799;47.184;8.538;2023-04-03T15:33:38;10.60;58.20
7516;DHT22;3799;47.184;8.538;2023-04-03T15:36:07;10.30;58.80
7516;DHT22;3799;47.184;8.538;2023-04-03T15:38:54;10.10;59.30
7516;DHT22;3799;47.184;8.538;2023-04-03T15:41:22;10.00;59.40
7516;DHT22;3799;47.184;8.538;2023-04-03T15:43:49;9.70;60.50
7516;DHT22;3799;47.184;8.538;2023-04-03T15:46:17;9.80;61.70
7516;DHT22;3799;47.184;8.538;2023-04-03T15:48:44;9.30;60.30
7516;DHT22;3799;47.184;8.538;2023-04-03T15:51:12;9.40;61.50
7516;DHT22;3799;47.184;8.538;2023-04-03T15:53:39;9.10;62.10
7516;DHT22;3799;47.184;8.538;2023-04-03T15:56:07;8.90;63.50
7516;DHT22;3799;47.184;8.538;2023-04-03T15:58:37;9.00;62.80
7516;DHT22;3799;47.184;8.538;2023-04-03T16:01:06;8.60;63.50
7516;DHT22;3799;47.184;8.538;2023-04-03T16:03:44;9.00;64.90
7516;DHT22;3799;47.184;8.538;2023-04-03T16:06:19;8.50;63.40
7516;DHT22;3799;47.184;8.538;2023-04-03T16:08:47;8.40;64.20
7516;DHT22;3799;47.184;8.538;2023-04-03T16:11:16;8.60;65.30
7516;DHT22;3799;47.184;8.538;2023-04-03T16:13:43;8.50;65.50
7516;DHT22;3799;47.184;8.538;2023-04-03T16:16:11;8.40;64.40
7516;DHT22;3799;47.184;8.538;2023-04-03T16:18:39;8.30;65.30
7516;DHT22;3799;47.184;8.538;2023-04-03T16:21:07;8.10;65.80
7516;DHT22;3799;47.184;8.538;2023-04-03T16:23:35;8.40;66.90
7516;DHT22;3799;47.184;8.538;2023-04-03T16:26:03;8.20;67.50
7516;DHT22;3799;47.184;8.538;2023-04-03T16:28:30;8.20;67.00
7516;DHT22;3799;47.184;8.538;2023-04-03T16:30:57;8.20;66.90
7516;DHT22;3799;47.184;8.538;2023-04-03T16:33:26;8.30;67.60
7516;DHT22;3799;47.184;8.538;2023-04-03T16:35:54;8.10;68.60
7516;DHT22;3799;47.184;8.538;2023-04-03T16:38:25;8.20;68.20
7516;DHT22;3799;47.184;8.538;2023-04-03T16:40:52;8.40;68.60
7516;DHT22;3799;47.184;8.538;2023-04-03T16:43:23;8.50;68.50
7516;DHT22;3799;47.184;8.538;2023-04-03T16:45:50;8.30;68.90
7516;DHT22;3799;47.184;8.538;2023-04-03T16:48:27;8.00;68.30
7516;DHT22;3799;47.184;8.538;2023-04-03T16:50:55;8.10;68.00
7516;DHT22;3799;47.184;8.538;2023-04-03T16:53:23;8.10;67.20
7516;DHT22;3799;47.184;8.538;2023-04-03T16:55:51;8.10;67.60
7516;DHT22;3799;47.184;8.538;2023-04-03T16:58:19;8.00;66.90
7516;DHT22;3799;47.184;8.538;2023-04-03T17:00:49;8.10;67.80
7516;DHT22;3799;47.184;8.538;2023-04-03T17:03:17;8.10;68.60
7516;DHT22;3799;47.184;8.538;2023-04-03T17:05:48;7.80;69.30
7516;DHT22;3799;47.184;8.538;2023-04-03T17:08:17;7.80;68.30
7516;DHT22;3799;47.184;8.538;2023-04-03T17:10:44;7.80;68.60
7516;DHT22;3799;47.184;8.538;2023-04-03T17:13:11;7.90;68.90
7516;DHT22;3799;47.184;8.538;2023-04-03T17:15:39;7.80;69.00
7516;DHT22;3799;47.184;8.538;2023-04-03T17:18:07;7.70;69.20
7516;DHT22;3799;47.184;8.538;2023-04-03T17:20:36;7.60;69.20
7516;DHT22;3799;47.184;8.538;2023-04-03T17:23:05;7.70;68.00
7516;DHT22;3799;47.184;8.538;2023-04-03T17:25:33;7.70;68.50
7516;DHT22;3799;47.184;8.538;2023-04-03T17:28:00;7.40;67.90
7516;DHT22;3799;47.184;8.538;2023-04-03T17:30:27;7.50;67.90
7516;DHT22;3799;47.184;8.538;2023-04-03T17:32:58;7.40;68.90
7516;DHT22;3799;47.184;8.538;2023-04-03T17:35:26;7.50;69.60
7516;DHT22;3799;47.184;8.538;2023-04-03T17:37:54;7.40;69.40
7516;DHT22;3799;47.184;8.538;2023-04-03T17:40:22;7.10;70.00
7516;DHT22;3799;47.184;8.538;2023-04-03T17:42:49;7.20;70.70
7516;DHT22;3799;47.184;8.538;2023-04-03T17:45:17;7.40;71.00
7516;DHT22;3799;47.184;8.538;2023-04-03T17:47:45;7.30;71.40
7516;DHT22;3799;47.184;8.538;2023-04-03T17:50:12;7.40;71.40
7516;DHT22;3799;47.184;8.538;2023-04-03T17:52:42;7.10;70.90
7516;DHT22;3799;47.184;8.538;2023-04-03T17:55:10;7.20;71.80
7516;DHT22;3799;47.184;8.538;2023-04-03T17:57:39;7.10;72.70
7516;DHT22;3799;47.184;8.538;2023-04-03T18:00:07;7.20;73.10
7516;DHT22;3799;47.184;8.538;2023-04-03T18:02:35;7.30;73.50
7516;DHT22;3799;47.184;8.538;2023-04-03T18:05:03;7.30;73.80
7516;DHT22;3799;47.184;8.538;2023-04-03T18:07:30;7.10;72.60
7516;DHT22;3799;47.184;8.538;2023-04-03T18:09:58;6.70;71.00
7516;DHT22;3799;47.184;8.538;2023-04-03T18:12:26;7.10;72.70
7516;DHT22;3799;47.184;8.538;2023-04-03T18:14:53;7.10;74.20
7516;DHT22;3799;47.184;8.538;2023-04-03T18:17:20;7.10;74.70
7516;DHT22;3799;47.184;8.538;2023-04-03T18:19:51;6.70;74.10
7516;DHT22;3799;47.184;8.538;2023-04-03T18:22:20;7.20;75.10
7516;DHT22;3799;47.184;8.538;2023-04-03T18:24:50;7.00;75.00